| time (UTC) | temp F | wind direction | speed knots | gust knots | rain 1hr in | rain 24hr in | rain mn in | humidity % | barometer mb |
| 20260503215033 | 60 | 323 | 4.3 | 13.0 | 0.00 | 0.00 | 0.00 | 31 | 1014.1 |
| 20260503214543 | 61 | 300 | 6.1 | 13.0 | 0.00 | 0.00 | 0.00 | 30 | 1014.0 |
| 20260503214035 | 61 | 340 | 5.2 | 9.6 | 0.00 | 0.00 | 0.00 | 30 | 1014.1 |
| 20260503213535 | 61 | 316 | 1.7 | 9.6 | 0.00 | 0.00 | 0.00 | 33 | 1014.2 |
| 20260503213045 | 61 | 332 | 4.3 | 13.0 | 0.00 | 0.00 | 0.00 | 30 | 1014.2 |
| 20260503212536 | 61 | 200 | 6.1 | 13.0 | 0.00 | 0.00 | 0.00 | 32 | 1014.1 |
| 20260503212034 | 61 | 253 | 4.3 | 10.4 | 0.00 | 0.00 | 0.00 | 31 | 1014.1 |
| 20260503211544 | 61 | 205 | 2.6 | 10.4 | 0.00 | 0.00 | 0.00 | 33 | 1014.0 |
| 20260503211033 | 61 | 271 | 3.5 | 11.3 | 0.00 | 0.00 | 0.00 | 32 | 1014.0 |
| 20260503210534 | 61 | 290 | 3.5 | 11.3 | 0.00 | 0.00 | 0.00 | 33 | 1014.1 |
| 20260503210041 | 61 | 300 | 3.5 | 10.4 | 0.00 | 0.00 | 0.00 | 33 | 1014.1 |
| 20260503205536 | 61 | 238 | 2.6 | 11.3 | 0.00 | 0.00 | 0.00 | 31 | 1014.2 |
| 20260503205034 | 61 | 290 | 2.6 | 11.3 | 0.00 | 0.00 | 0.00 | 33 | 1014.1 |
| 20260503204637 | 60 | 352 | 0.9 | 12.2 | 0.00 | 0.00 | 0.00 | 34 | 1014.2 |
| 20260503204547 | 60 | 352 | 0.9 | 12.2 | 0.00 | 0.00 | 0.00 | 34 | 1014.2 |
| 20260503204035 | 60 | 261 | 3.5 | 12.2 | 0.00 | 0.00 | 0.00 | 33 | 1014.2 |
| 20260503203536 | 60 | 338 | 7.8 | 12.2 | 0.00 | 0.00 | 0.00 | 32 | 1014.3 |
| 20260503203047 | 60 | 302 | 4.3 | 11.3 | 0.00 | 0.00 | 0.00 | 32 | 1014.2 |
| 20260503202636 | 60 | 360 | 5.2 | 12.2 | 0.00 | 0.00 | 0.00 | 31 | 1014.3 |
| 20260503202039 | 60 | 256 | 3.5 | 12.2 | 0.00 | 0.00 | 0.00 | 32 | 1014.0 |
| 20260503201547 | 61 | 290 | 6.1 | 14.8 | 0.00 | 0.00 | 0.00 | 29 | 1014.3 |
| 20260503201033 | 60 | 175 | 1.7 | 14.8 | 0.00 | 0.00 | 0.00 | 32 | 1014.3 |
| 20260503200535 | 60 | 269 | 5.2 | 14.8 | 0.00 | 0.00 | 0.00 | 32 | 1014.5 |
| 20260503200047 | 60 | 11 | 3.5 | 8.7 | 0.00 | 0.00 | 0.00 | 33 | 1014.6 |
| 20260503195534 | 60 | 240 | 2.6 | 10.4 | 0.00 | 0.00 | 0.00 | 34 | 1014.5 |
| 20260503195036 | 59 | 277 | 5.2 | 11.3 | 0.00 | 0.00 | 0.00 | 33 | 1014.6 |
| 20260503194549 | 60 | 205 | 5.2 | 11.3 | 0.00 | 0.00 | 0.00 | 33 | 1014.6 |
| 20260503194034 | 59 | 318 | 4.3 | 11.3 | 0.00 | 0.00 | 0.00 | 32 | 1014.6 |
| 20260503193534 | 59 | 296 | 3.5 | 11.3 | 0.00 | 0.00 | 0.00 | 33 | 1014.8 |
| 20260503193055 | 59 | 278 | 5.2 | 13.0 | 0.00 | 0.00 | 0.00 | 32 | 1015.0 |
| 20260503192536 | 59 | 198 | 5.2 | 15.6 | 0.00 | 0.00 | 0.00 | 33 | 1015.0 |
| 20260503192034 | 59 | 229 | 5.2 | 15.6 | 0.00 | 0.00 | 0.00 | 33 | 1015.1 |
| 20260503191548 | 59 | 220 | 5.2 | 13.0 | 0.00 | 0.00 | 0.00 | 35 | 1015.0 |
| 20260503191034 | 58 | 338 | 1.7 | 12.2 | 0.00 | 0.00 | 0.00 | 36 | 1015.1 |
| 20260503190534 | 59 | 220 | 7.0 | 12.2 | 0.00 | 0.00 | 0.00 | 33 | 1015.1 |
| 20260503190051 | 58 | 275 | 5.2 | 12.2 | 0.00 | 0.00 | 0.00 | 33 | 1015.2 |
| 20260503185534 | 58 | 303 | 1.7 | 11.3 | 0.00 | 0.00 | 0.00 | 34 | 1015.4 |
| 20260503185036 | 58 | 14 | 5.2 | 11.3 | 0.00 | 0.00 | 0.00 | 33 | 1015.6 |
| 20260503184555 | 58 | 278 | 4.3 | 11.3 | 0.00 | 0.00 | 0.00 | 33 | 1015.6 |
| 20260503184035 | 58 | 316 | 6.1 | 11.3 | 0.00 | 0.00 | 0.00 | 33 | 1015.7 |
| 20260503183535 | 58 | 290 | 2.6 | 8.7 | 0.00 | 0.00 | 0.00 | 35 | 1015.8 |
| 20260503183043 | 58 | 330 | 0.9 | 8.7 | 0.00 | 0.00 | 0.00 | 36 | 1015.7 |
| 20260503182541 | 58 | 22 | 0.9 | 14.8 | 0.00 | 0.00 | 0.00 | 38 | 1015.7 |
| 20260503182038 | 57 | 239 | 5.2 | 14.8 | 0.00 | 0.00 | 0.00 | 38 | 1015.8 |
| 20260503181543 | 57 | 211 | 6.1 | 14.8 | 0.00 | 0.00 | 0.00 | 35 | 1015.6 |
| 20260503181034 | 57 | 286 | 3.5 | 14.8 | 0.00 | 0.00 | 0.00 | 36 | 1015.7 |
| 20260503180533 | 56 | 279 | 3.5 | 13.0 | 0.00 | 0.00 | 0.00 | 36 | 1015.6 |
| 20260503180043 | 56 | 240 | 3.5 | 13.0 | 0.00 | 0.00 | 0.00 | 36 | 1015.7 |
| 20260503175533 | 57 | 246 | 4.3 | 13.9 | 0.00 | 0.00 | 0.00 | 36 | 1015.8 |
| 20260503175033 | 57 | 332 | 7.8 | 13.9 | 0.00 | 0.00 | 0.00 | 39 | 1015.8 |
| 20260503174603 | 56 | 338 | 4.3 | 16.5 | 0.00 | 0.00 | 0.00 | 40 | 1016.0 |
| 20260503174034 | 56 | 342 | 6.1 | 16.5 | 0.00 | 0.00 | 0.00 | 38 | 1016.0 |
| 20260503173536 | 56 | 250 | 6.1 | 16.5 | 0.00 | 0.00 | 0.00 | 38 | 1016.0 |
| 20260503173050 | 56 | 293 | 4.3 | 11.3 | 0.00 | 0.00 | 0.00 | 36 | 1015.9 |
| 20260503172535 | 56 | 346 | 4.3 | 15.6 | 0.00 | 0.00 | 0.00 | 38 | 1016.1 |
| 20260503172035 | 56 | 333 | 7.8 | 15.6 | 0.00 | 0.00 | 0.00 | 38 | 1016.2 |
| 20260503171545 | 56 | 292 | 3.5 | 14.8 | 0.00 | 0.00 | 0.00 | 40 | 1016.3 |
| 20260503171033 | 54 | 219 | 7.0 | 14.8 | 0.00 | 0.00 | 0.00 | 40 | 1016.3 |
| 20260503170535 | 54 | 360 | 3.5 | 11.3 | 0.00 | 0.00 | 0.00 | 39 | 1016.2 |
| 20260503150535 | 50 | 321 | 7.0 | 15.6 | 0.00 | 0.00 | 0.00 | 47 | 1017.5 |
| 20260503131034 | 46 | 263 | 2.6 | 8.7 | 0.00 | 0.00 | 0.00 | 54 | 1017.6 |
| 20260503130535 | 46 | 339 | 1.7 | 11.3 | 0.00 | 0.00 | 0.00 | 55 | 1017.7 |
| 20260503110535 | 41 | 238 | 2.6 | 9.6 | 0.00 | 0.00 | 0.00 | 64 | 1016.5 |
| 20260503081550 | 41 | 0 | 0.9 | 7.0 | 0.00 | 0.00 | 0.00 | 68 | 1015.4 |
| 20260503081035 | 41 | 249 | 1.7 | 5.2 | 0.00 | 0.00 | 0.00 | 68 | 1015.4 |
| 20260503080539 | 41 | 258 | 1.7 | 5.2 | 0.00 | 0.00 | 0.00 | 68 | 1015.2 |
| 20260503072533 | 41 | 281 | 3.5 | 8.7 | 0.00 | 0.00 | 0.00 | 67 | 1015.1 |
| 20260503072035 | 41 | 295 | 0.9 | 7.0 | 0.00 | 0.00 | 0.00 | 67 | 1014.9 |
| 20260503071547 | 41 | 345 | 0.9 | 7.0 | 0.00 | 0.00 | 0.00 | 67 | 1014.7 |
| 20260503071034 | 41 | 303 | 2.6 | 7.0 | 0.00 | 0.00 | 0.00 | 66 | 1014.7 |
| 20260503070533 | 41 | 238 | 0.0 | 5.2 | 0.00 | 0.00 | 0.00 | 66 | 1014.7 |
| 20260503055033 | 42 | 0 | 0.0 | 7.0 | 0.00 | 0.00 | 0.00 | 66 | 1014.6 |
| 20260503054543 | 42 | 310 | 1.7 | 7.0 | 0.00 | 0.00 | 0.00 | 67 | 1014.6 |
| 20260503054034 | 42 | 0 | 0.0 | 2.6 | 0.00 | 0.00 | 0.00 | 66 | 1014.5 |
| 20260503053533 | 43 | 338 | 0.9 | 4.3 | 0.00 | 0.00 | 0.00 | 66 | 1014.5 |
| 20260503053044 | 43 | 0 | 0.9 | 4.3 | 0.00 | 0.00 | 0.00 | 65 | 1014.4 |
| 20260503052533 | 43 | 0 | 0.9 | 3.5 | 0.00 | 0.00 | 0.00 | 65 | 1014.3 |
| 20260503052035 | 43 | 321 | 0.0 | 3.5 | 0.00 | 0.00 | 0.00 | 65 | 1014.5 |
| 20260503051550 | 43 | 304 | 0.9 | 5.2 | 0.00 | 0.00 | 0.00 | 64 | 1014.6 |
| 20260503051033 | 44 | 315 | 1.7 | 5.2 | 0.00 | 0.00 | 0.00 | 64 | 1014.6 |
| 20260503050536 | 44 | 306 | 0.9 | 7.0 | 0.00 | 0.00 | 0.00 | 64 | 1014.6 |
| 20260503050050 | 44 | 336 | 3.5 | 9.6 | 0.00 | 0.00 | 0.00 | 64 | 1014.6 |
| 20260503045533 | 44 | 339 | 3.5 | 11.3 | 0.00 | 0.00 | 0.00 | 63 | 1014.6 |
| 20260503045034 | 44 | 329 | 5.2 | 12.2 | 0.00 | 0.00 | 0.00 | 63 | 1014.7 |
| 20260503044545 | 44 | 355 | 7.0 | 13.9 | 0.00 | 0.00 | 0.00 | 63 | 1014.7 |
| 20260503044034 | 44 | 324 | 7.8 | 15.6 | 0.00 | 0.00 | 0.00 | 63 | 1014.6 |
| 20260503043533 | 44 | 336 | 8.7 | 15.6 | 0.00 | 0.00 | 0.00 | 63 | 1014.5 |
| 20260503043044 | 44 | 326 | 8.7 | 13.0 | 0.00 | 0.00 | 0.00 | 63 | 1014.3 |
| 20260503042535 | 44 | 329 | 6.1 | 13.9 | 0.00 | 0.00 | 0.00 | 63 | 1014.2 |
| 20260503042031 | 44 | 325 | 7.8 | 14.8 | 0.00 | 0.00 | 0.00 | 63 | 1014.3 |
| 20260503041543 | 45 | 5 | 7.8 | 14.8 | 0.00 | 0.00 | 0.00 | 63 | 1014.3 |
| 20260503041035 | 45 | 330 | 8.7 | 14.8 | 0.00 | 0.00 | 0.00 | 62 | 1014.2 |
| 20260503040534 | 45 | 329 | 5.2 | 13.9 | 0.00 | 0.00 | 0.00 | 63 | 1014.2 |
| 20260503040051 | 45 | 5 | 7.8 | 13.9 | 0.00 | 0.00 | 0.00 | 63 | 1014.2 |
| 20260503035534 | 45 | 305 | 7.8 | 13.0 | 0.00 | 0.00 | 0.00 | 63 | 1014.2 |
| 20260503035035 | 45 | 324 | 7.0 | 13.0 | 0.00 | 0.00 | 0.00 | 63 | 1014.2 |
| 20260503034606 | 44 | 325 | 1.7 | 11.3 | 0.00 | 0.00 | 0.00 | 63 | 1014.3 |
| 20260503034037 | 45 | 321 | 0.9 | 11.3 | 0.00 | 0.00 | 0.00 | 63 | 1014.3 |
| 20260503033538 | 45 | 319 | 4.3 | 11.3 | 0.00 | 0.00 | 0.00 | 63 | 1014.3 |
| 20260503033054 | 45 | 337 | 1.7 | 7.0 | 0.00 | 0.00 | 0.00 | 63 | 1014.3 |
| 20260503032537 | 45 | 20 | 0.9 | 12.2 | 0.00 | 0.00 | 0.00 | 63 | 1014.3 |
| 20260503032038 | 45 | 342 | 3.5 | 12.2 | 0.00 | 0.00 | 0.00 | 63 | 1014.3 |
| 20260503031548 | 44 | 286 | 0.9 | 6.1 | 0.00 | 0.00 | 0.00 | 63 | 1014.4 |
| 20260503031032 | 45 | 307 | 0.9 | 4.3 | 0.00 | 0.00 | 0.00 | 63 | 1014.5 |
| 20260503030534 | 45 | 332 | 1.7 | 4.3 | 0.00 | 0.00 | 0.00 | 63 | 1014.5 |
| 20260503030042 | 45 | 0 | 0.0 | 3.5 | 0.00 | 0.00 | 0.00 | 63 | 1014.4 |
| 20260503025531 | 46 | 0 | 0.0 | 7.0 | 0.00 | 0.00 | 0.00 | 62 | 1014.6 |
| 20260503025031 | 46 | 342 | 2.6 | 7.0 | 0.00 | 0.00 | 0.00 | 60 | 1014.5 |
| 20260503024549 | 46 | 259 | 2.6 | 7.0 | 0.00 | 0.00 | 0.00 | 60 | 1014.5 |
| 20260503024034 | 46 | 305 | 0.9 | 7.0 | 0.00 | 0.00 | 0.00 | 61 | 1014.5 |
| 20260503023534 | 46 | 339 | 2.6 | 7.0 | 0.00 | 0.00 | 0.00 | 60 | 1014.6 |
| 20260503023044 | 46 | 0 | 0.9 | 7.0 | 0.00 | 0.00 | 0.00 | 59 | 1014.5 |
| 20260503022535 | 47 | 355 | 0.0 | 7.0 | 0.00 | 0.00 | 0.00 | 59 | 1014.5 |
| 20260503022035 | 47 | 326 | 2.6 | 7.0 | 0.00 | 0.00 | 0.00 | 58 | 1014.5 |
| 20260503021547 | 47 | 337 | 1.7 | 7.0 | 0.00 | 0.00 | 0.00 | 57 | 1014.5 |
| 20260503021037 | 48 | 0 | 1.7 | 6.1 | 0.00 | 0.00 | 0.00 | 55 | 1014.3 |
| 20260503020534 | 48 | 300 | 1.7 | 6.1 | 0.00 | 0.00 | 0.00 | 55 | 1014.3 |
| 20260503020038 | 48 | 346 | 2.6 | 7.0 | 0.00 | 0.00 | 0.00 | 55 | 1014.3 |
| 20260503015534 | 48 | 325 | 0.9 | 7.0 | 0.00 | 0.00 | 0.00 | 54 | 1014.3 |
| 20260503015033 | 48 | 74 | 2.6 | 7.0 | 0.00 | 0.00 | 0.00 | 54 | 1014.2 |
| 20260503014545 | 49 | 304 | 0.0 | 2.6 | 0.00 | 0.00 | 0.00 | 55 | 1014.2 |
| 20260503014034 | 49 | 0 | 0.0 | 3.5 | 0.00 | 0.00 | 0.00 | 54 | 1014.2 |
| 20260503013532 | 49 | 49 | 0.9 | 3.5 | 0.00 | 0.00 | 0.00 | 53 | 1014.3 |
| 20260503013051 | 50 | 85 | 0.0 | 2.6 | 0.00 | 0.00 | 0.00 | 52 | 1014.1 |
| 20260503012535 | 50 | 319 | 0.0 | 4.3 | 0.00 | 0.00 | 0.00 | 53 | 1014.1 |
| 20260503012033 | 50 | 355 | 0.0 | 4.3 | 0.00 | 0.00 | 0.00 | 50 | 1014.1 |
| 20260503011547 | 50 | 5 | 1.7 | 7.8 | 0.00 | 0.00 | 0.00 | 50 | 1013.9 |
| 20260503011033 | 50 | 32 | 0.9 | 7.8 | 0.00 | 0.00 | 0.00 | 50 | 1013.9 |
| 20260503010534 | 50 | 0 | 0.0 | 10.4 | 0.00 | 0.00 | 0.00 | 50 | 1013.7 |
| 20260503010051 | 51 | 360 | 1.7 | 10.4 | 0.00 | 0.00 | 0.00 | 49 | 1013.6 |
| 20260503005533 | 51 | 340 | 5.2 | 10.4 | 0.00 | 0.00 | 0.00 | 48 | 1013.4 |
| 20260503005034 | 51 | 326 | 1.7 | 7.8 | 0.00 | 0.00 | 0.00 | 47 | 1013.3 |
| 20260503004604 | 51 | 329 | 1.7 | 7.8 | 0.00 | 0.00 | 0.00 | 48 | 1013.2 |
| 20260503004036 | 51 | 333 | 0.9 | 8.7 | 0.00 | 0.00 | 0.00 | 48 | 1013.1 |
| 20260503003533 | 51 | 302 | 4.3 | 8.7 | 0.00 | 0.00 | 0.00 | 47 | 1013.1 |
| 20260503003055 | 51 | 329 | 1.7 | 5.2 | 0.00 | 0.00 | 0.00 | 47 | 1013.0 |
| 20260503002533 | 51 | 0 | 1.7 | 6.1 | 0.00 | 0.00 | 0.00 | 47 | 1012.9 |
| 20260503002034 | 51 | 309 | 2.6 | 6.1 | 0.00 | 0.00 | 0.00 | 47 | 1012.8 |
| 20260503001614 | 51 | 338 | 0.0 | 1.7 | 0.00 | 0.00 | 0.00 | 47 | 1012.9 |
| 20260503001034 | 52 | 0 | 0.0 | 2.6 | 0.00 | 0.00 | 0.00 | 47 | 1012.7 |
| 20260503000534 | 52 | 0 | 0.0 | 2.6 | 0.00 | 0.00 | 0.00 | 45 | 1012.6 |
| 20260503000051 | 52 | 0 | 0.0 | 4.3 | 0.00 | 0.00 | 0.00 | 44 | 1012.6 |
| 20260502235534 | 52 | 0 | 1.7 | 4.3 | 0.00 | 0.00 | 0.00 | 44 | 1012.5 |
| 20260502235034 | 52 | 114 | 0.0 | 5.2 | 0.00 | 0.00 | 0.00 | 45 | 1012.5 |
| 20260502234548 | 52 | 0 | 1.7 | 5.2 | 0.00 | 0.00 | 0.00 | 43 | 1012.3 |
| 20260502234033 | 52 | 168 | 1.7 | 5.2 | 0.00 | 0.00 | 0.00 | 42 | 1012.3 |
| 20260502233533 | 53 | 296 | 0.0 | 5.2 | 0.00 | 0.00 | 0.00 | 44 | 1012.3 |
| 20260502233043 | 53 | 341 | 0.9 | 7.0 | 0.00 | 0.00 | 0.00 | 43 | 1012.2 |
| 20260502232533 | 53 | 285 | 1.7 | 7.0 | 0.00 | 0.00 | 0.00 | 42 | 1012.2 |
| 20260502232034 | 54 | 314 | 2.6 | 7.0 | 0.00 | 0.00 | 0.00 | 43 | 1012.2 |
| 20260502231540 | 54 | 0 | 2.6 | 6.1 | 0.00 | 0.00 | 0.00 | 41 | 1012.1 |
| 20260502231034 | 54 | 355 | 0.9 | 4.3 | 0.00 | 0.00 | 0.00 | 41 | 1012.0 |
| 20260502230538 | 54 | 0 | 0.9 | 4.3 | 0.00 | 0.00 | 0.00 | 42 | 1012.1 |
| 20260502230039 | 54 | 250 | 0.9 | 5.2 | 0.00 | 0.00 | 0.00 | 41 | 1011.9 |
| 20260502225533 | 54 | 298 | 0.9 | 7.0 | 0.00 | 0.00 | 0.00 | 41 | 1011.9 |
| 20260502225033 | 54 | 196 | 1.7 | 10.4 | 0.00 | 0.00 | 0.00 | 41 | 1011.9 |
| 20260502224537 | 54 | 351 | 0.9 | 10.4 | 0.00 | 0.00 | 0.00 | 40 | 1011.8 |
| 20260502224033 | 55 | 271 | 4.3 | 11.3 | 0.00 | 0.00 | 0.00 | 38 | 1011.9 |
| 20260502223533 | 56 | 355 | 3.5 | 11.3 | 0.00 | 0.00 | 0.00 | 40 | 1011.9 |
| 20260502223046 | 55 | 324 | 2.6 | 10.4 | 0.00 | 0.00 | 0.00 | 38 | 1011.9 |
| 20260502222534 | 55 | 284 | 4.3 | 10.4 | 0.00 | 0.00 | 0.00 | 39 | 1011.8 |
| 20260502222034 | 55 | 294 | 2.6 | 8.7 | 0.00 | 0.00 | 0.00 | 41 | 1012.0 |
| 20260502221546 | 56 | 329 | 2.6 | 7.0 | 0.00 | 0.00 | 0.00 | 40 | 1011.8 |
| 20260502221031 | 55 | 307 | 0.0 | 11.3 | 0.00 | 0.00 | 0.00 | 43 | 1011.7 |
| 20260502220534 | 56 | 344 | 3.5 | 11.3 | 0.00 | 0.00 | 0.00 | 41 | 1011.8 |
| 20260502220046 | 56 | 321 | 5.2 | 11.3 | 0.00 | 0.00 | 0.00 | 38 | 1011.8 |
| 20260502215534 | 56 | 286 | 3.5 | 11.3 | 0.00 | 0.00 | 0.00 | 39 | 1011.6 |